createdAt,value
2018-07-22T00:00:23.090Z,11.93
2018-07-22T00:02:51.864Z,11.73
2018-07-22T00:05:20.638Z,11.77
2018-07-22T00:07:49.470Z,12.17
2018-07-22T00:10:27.442Z,12.40
2018-07-22T00:12:57.042Z,12.37
2018-07-22T00:15:25.799Z,11.43
2018-07-22T00:17:54.622Z,12.77
2018-07-22T00:20:23.415Z,11.73
2018-07-22T00:22:52.226Z,12.80
2018-07-22T00:25:21.961Z,13.87
2018-07-22T00:27:50.805Z,13.53
2018-07-22T00:30:19.634Z,13.40
2018-07-22T00:32:48.385Z,12.77
2018-07-22T00:35:17.206Z,13.83
2018-07-22T00:37:46.181Z,13.07
2018-07-22T00:40:14.962Z,12.13
2018-07-22T00:42:43.746Z,12.13
2018-07-22T00:45:13.649Z,12.60
2018-07-22T00:47:43.247Z,11.73
2018-07-22T00:50:12.215Z,12.40
2018-07-22T00:52:41.401Z,12.27
2018-07-22T00:55:10.154Z,12.30
2018-07-22T00:57:38.951Z,12.00
2018-07-22T01:00:08.377Z,11.67
2018-07-22T01:02:37.333Z,11.43
2018-07-22T01:05:06.667Z,11.77
2018-07-22T01:07:35.454Z,11.60
2018-07-22T01:10:04.333Z,14.00
2018-07-22T01:12:33.104Z,13.53
2018-07-22T01:15:01.902Z,12.93
2018-07-22T01:17:30.727Z,13.30
2018-07-22T01:19:59.545Z,13.20
2018-07-22T01:22:28.355Z,13.37
2018-07-22T01:24:57.101Z,14.80
2018-07-22T01:27:25.859Z,13.67
2018-07-22T01:29:54.622Z,14.57
2018-07-22T01:32:23.369Z,14.93
2018-07-22T01:34:52.198Z,14.27
2018-07-22T01:37:20.985Z,14.73
2018-07-22T01:39:50.061Z,12.97
2018-07-22T01:42:18.824Z,12.53
2018-07-22T01:44:47.582Z,12.70
2018-07-22T01:47:16.401Z,12.40
2018-07-22T01:49:45.175Z,12.90
2018-07-22T01:52:14.014Z,12.97
2018-07-22T01:54:42.776Z,13.93
2018-07-22T01:57:11.588Z,15.23
2018-07-22T01:59:40.400Z,14.10
2018-07-22T02:02:09.378Z,13.57
2018-07-22T02:04:42.974Z,13.87
2018-07-22T02:07:11.917Z,16.00
2018-07-22T02:09:40.701Z,15.47
2018-07-22T02:12:09.485Z,14.17
2018-07-22T02:14:38.257Z,14.33
2018-07-22T02:17:07.074Z,14.03
2018-07-22T02:19:35.871Z,14.20
2018-07-22T02:22:04.780Z,13.63
2018-07-22T02:24:33.570Z,13.43
2018-07-22T02:27:02.327Z,13.43
2018-07-22T02:29:31.154Z,13.63
2018-07-22T02:31:59.961Z,12.77
2018-07-22T02:34:28.737Z,13.30
2018-07-22T02:36:57.556Z,12.03
2018-07-22T02:39:26.332Z,12.10
2018-07-22T02:41:55.103Z,12.43
2018-07-22T02:44:23.924Z,12.03
2018-07-22T02:46:52.726Z,12.60
2018-07-22T02:49:21.470Z,12.33
2018-07-22T02:51:50.335Z,13.77
2018-07-22T02:54:19.112Z,12.60
2018-07-22T02:56:47.973Z,13.03
2018-07-22T02:59:16.750Z,13.53
2018-07-22T03:01:45.493Z,12.27
2018-07-22T03:04:14.259Z,13.30
2018-07-22T03:06:43.024Z,11.53
2018-07-22T03:09:11.783Z,12.73
2018-07-22T03:11:40.590Z,11.70
2018-07-22T03:14:09.391Z,12.17
2018-07-22T03:16:38.194Z,11.97
2018-07-22T03:19:07.022Z,12.27
2018-07-22T03:21:35.755Z,13.33
2018-07-22T03:24:04.546Z,11.97
2018-07-22T03:26:33.336Z,12.20
2018-07-22T03:29:02.103Z,11.77
2018-07-22T03:31:30.900Z,12.13
2018-07-22T03:33:59.702Z,11.57
2018-07-22T03:36:28.514Z,12.63
2018-07-22T03:38:57.303Z,12.53
2018-07-22T03:41:26.069Z,13.10
2018-07-22T03:43:54.868Z,13.23
2018-07-22T03:46:23.601Z,13.23
2018-07-22T03:48:52.382Z,12.73
2018-07-22T03:51:21.175Z,12.83
2018-07-22T03:53:49.953Z,12.10
2018-07-22T03:56:18.828Z,13.43
2018-07-22T03:58:48.010Z,12.40
2018-07-22T04:01:16.850Z,12.73
2018-07-22T04:03:45.716Z,13.13
2018-07-22T04:06:14.521Z,14.37
2018-07-22T04:08:43.319Z,14.27
2018-07-22T04:11:12.136Z,14.87
2018-07-22T04:13:41.031Z,16.10
2018-07-22T04:16:09.896Z,16.00
2018-07-22T04:18:44.533Z,14.00
2018-07-22T04:21:13.405Z,15.47
2018-07-22T04:23:42.236Z,16.20
2018-07-22T04:26:11.051Z,14.57
2018-07-22T04:28:39.983Z,15.17
2018-07-22T04:31:08.813Z,15.40
2018-07-22T04:33:37.641Z,14.03
2018-07-22T04:36:06.619Z,14.53
2018-07-22T04:38:35.413Z,14.13
2018-07-22T04:41:04.241Z,14.57
2018-07-22T04:43:33.078Z,14.43
2018-07-22T04:46:01.920Z,13.40
2018-07-22T04:48:30.716Z,15.33
2018-07-22T04:50:59.553Z,14.67
2018-07-22T04:53:28.411Z,15.83
2018-07-22T04:55:57.413Z,14.77
2018-07-22T04:58:26.240Z,15.33
2018-07-22T05:00:55.057Z,14.33
2018-07-22T05:03:23.905Z,13.87
2018-07-22T05:05:52.686Z,14.67
2018-07-22T05:08:21.497Z,14.13
2018-07-22T05:10:50.307Z,12.87
2018-07-22T05:13:19.159Z,13.70
2018-07-22T05:15:47.965Z,13.10
2018-07-22T05:18:16.849Z,13.67
2018-07-22T05:20:45.686Z,13.00
2018-07-22T05:23:14.530Z,13.33
2018-07-22T05:25:43.357Z,11.93
2018-07-22T05:28:12.208Z,12.00
2018-07-22T05:30:41.072Z,11.97
2018-07-22T05:33:09.892Z,10.93
2018-07-22T05:35:38.756Z,10.57
2018-07-22T05:38:07.566Z,11.83
2018-07-22T05:40:36.414Z,11.30
2018-07-22T05:43:05.328Z,11.43
2018-07-22T05:45:34.145Z,10.83
2018-07-22T05:48:02.931Z,10.67
2018-07-22T05:50:31.743Z,11.17
2018-07-22T05:53:00.589Z,10.00
2018-07-22T05:55:29.410Z,10.83
2018-07-22T05:57:58.243Z,11.33
2018-07-22T06:00:27.157Z,10.70
2018-07-22T06:02:55.987Z,11.20
2018-07-22T06:05:24.886Z,13.17
2018-07-22T06:07:53.688Z,12.60
2018-07-22T06:10:22.530Z,11.73
2018-07-22T06:12:51.314Z,12.90
2018-07-22T06:15:20.154Z,11.10
2018-07-22T06:17:48.923Z,12.67
2018-07-22T06:20:17.680Z,12.33
2018-07-22T06:22:46.432Z,11.13
2018-07-22T06:25:15.629Z,11.13
2018-07-22T06:27:44.403Z,12.27
2018-07-22T06:30:13.301Z,12.57
2018-07-22T06:32:42.082Z,12.43
2018-07-22T06:35:10.888Z,12.90
2018-07-22T06:37:39.925Z,11.87
2018-07-22T06:40:08.735Z,10.60
2018-07-22T06:42:37.550Z,11.57
2018-07-22T06:45:06.921Z,11.50
2018-07-22T06:47:35.711Z,12.07
2018-07-22T06:50:05.019Z,12.80
2018-07-22T06:52:33.947Z,12.03
2018-07-22T06:55:02.787Z,12.03
2018-07-22T06:57:31.658Z,12.03
2018-07-22T07:00:00.447Z,13.63
2018-07-22T07:02:29.255Z,13.63
2018-07-22T07:04:58.143Z,12.87
2018-07-22T07:07:27.137Z,12.50
2018-07-22T07:09:56.029Z,13.00
2018-07-22T07:12:25.399Z,12.50
2018-07-22T07:14:54.151Z,12.83
2018-07-22T07:17:22.942Z,12.07
2018-07-22T07:19:51.738Z,13.37
2018-07-22T07:22:20.593Z,12.73
2018-07-22T07:24:49.384Z,13.77
2018-07-22T07:27:18.217Z,12.60
2018-07-22T07:29:47.035Z,12.03
2018-07-22T07:32:15.830Z,12.40
2018-07-22T07:34:44.610Z,12.87
2018-07-22T07:37:13.467Z,12.17
2018-07-22T07:39:42.607Z,12.17
2018-07-22T07:42:11.441Z,12.50
2018-07-22T07:44:40.381Z,12.33
2018-07-22T07:47:09.180Z,11.80
2018-07-22T07:49:37.963Z,12.77
2018-07-22T07:52:06.777Z,11.70
2018-07-22T07:54:35.726Z,11.47
2018-07-22T07:57:04.579Z,12.33
2018-07-22T07:59:33.440Z,11.27
2018-07-22T08:02:02.226Z,11.57
2018-07-22T08:04:31.093Z,10.50
2018-07-22T08:06:59.962Z,10.63
2018-07-22T08:09:28.773Z,11.40
2018-07-22T08:11:57.593Z,10.70
2018-07-22T08:14:26.416Z,11.50
2018-07-22T08:16:55.621Z,10.90
2018-07-22T08:19:24.427Z,10.37
2018-07-22T08:21:53.354Z,9.57
2018-07-22T08:24:22.346Z,10.17
2018-07-22T08:26:51.105Z,10.47
2018-07-22T08:29:25.196Z,10.27
2018-07-22T08:31:54.042Z,10.10
2018-07-22T08:34:22.900Z,10.93
2018-07-22T08:36:51.778Z,10.40
2018-07-22T08:39:21.846Z,11.30
2018-07-22T08:41:51.440Z,10.93
2018-07-22T08:44:20.481Z,9.77
2018-07-22T08:46:49.251Z,11.33
2018-07-22T08:49:18.112Z,10.63
2018-07-22T08:51:46.984Z,11.03
2018-07-22T08:54:15.775Z,11.10
2018-07-22T08:56:44.608Z,12.33
2018-07-22T08:59:13.433Z,10.17
2018-07-22T09:01:42.661Z,10.50
2018-07-22T09:04:11.473Z,10.87
2018-07-22T09:06:40.363Z,10.50
2018-07-22T09:09:11.303Z,11.07
2018-07-22T09:11:40.218Z,11.80
2018-07-22T09:14:09.944Z,12.47
2018-07-22T09:16:39.089Z,10.03
2018-07-22T09:19:07.983Z,16.70
2018-07-22T09:21:37.089Z,11.17
2018-07-22T09:24:05.872Z,11.13
2018-07-22T09:26:34.673Z,10.53
2018-07-22T09:29:03.569Z,10.83
2018-07-22T09:31:32.360Z,10.07
2018-07-22T09:34:01.172Z,11.10
2018-07-22T09:36:30.022Z,11.57
2018-07-22T09:38:58.929Z,11.60
2018-07-22T09:41:27.795Z,11.50
2018-07-22T09:43:56.547Z,11.27
2018-07-22T09:46:25.293Z,11.77
2018-07-22T09:48:54.038Z,10.70
2018-07-22T09:51:22.850Z,10.87
2018-07-22T09:53:51.622Z,10.53
2018-07-22T09:56:20.421Z,11.07
2018-07-22T09:58:49.283Z,10.30
2018-07-22T10:01:18.123Z,10.37
2018-07-22T10:03:46.939Z,13.13
2018-07-22T10:06:15.733Z,10.60
2018-07-22T10:08:44.593Z,9.93
2018-07-22T10:11:13.460Z,9.70
2018-07-22T10:13:42.419Z,9.73
2018-07-22T10:16:11.202Z,11.43
2018-07-22T10:18:39.985Z,10.00
2018-07-22T10:21:08.836Z,9.67
2018-07-22T10:23:37.611Z,10.07
2018-07-22T10:26:06.448Z,11.00
2018-07-22T10:28:35.304Z,11.13
2018-07-22T10:31:04.258Z,11.00
2018-07-22T10:33:33.004Z,9.60
2018-07-22T10:36:01.810Z,9.73
2018-07-22T10:38:30.595Z,9.23
2018-07-22T10:40:59.349Z,9.00
2018-07-22T10:43:28.149Z,9.73
2018-07-22T10:45:56.942Z,9.83
2018-07-22T10:48:26.138Z,9.20
2018-07-22T10:50:55.720Z,9.17
2018-07-22T10:53:24.679Z,9.53
2018-07-22T10:55:53.654Z,9.73
2018-07-22T10:58:22.397Z,9.07
2018-07-22T11:00:51.190Z,9.93
2018-07-22T11:03:20.017Z,9.70
2018-07-22T11:05:48.990Z,9.60
2018-07-22T11:08:17.949Z,8.93
2018-07-22T11:10:46.718Z,9.87
2018-07-22T11:13:15.515Z,10.00
2018-07-22T11:15:44.363Z,8.90
2018-07-22T11:18:13.313Z,9.43
2018-07-22T11:20:42.086Z,9.27
2018-07-22T11:23:11.269Z,9.40
2018-07-22T11:25:40.105Z,12.80
2018-07-22T11:28:08.898Z,11.50
2018-07-22T11:30:37.682Z,9.47
2018-07-22T11:33:06.433Z,9.33
2018-07-22T11:35:35.189Z,8.50
2018-07-22T11:38:03.994Z,8.57
2018-07-22T11:40:32.820Z,8.67
2018-07-22T11:43:01.650Z,7.70
2018-07-22T11:45:30.576Z,8.87
2018-07-22T11:47:59.481Z,8.17
2018-07-22T11:50:28.457Z,8.20
2018-07-22T11:52:57.491Z,8.40
2018-07-22T11:55:26.430Z,8.03
2018-07-22T11:57:55.343Z,8.60
2018-07-22T12:00:24.218Z,8.90
2018-07-22T12:02:53.369Z,8.17
2018-07-22T12:05:22.186Z,8.10
2018-07-22T12:07:51.096Z,7.80
2018-07-22T12:10:20.544Z,8.60
2018-07-22T12:12:49.302Z,8.70
2018-07-22T12:15:18.145Z,8.67
2018-07-22T12:17:47.007Z,8.53
2018-07-22T12:20:15.749Z,8.43
2018-07-22T12:22:44.522Z,8.63
2018-07-22T12:25:13.379Z,11.83
2018-07-22T12:27:42.153Z,9.50
2018-07-22T12:30:10.958Z,8.00
2018-07-22T12:32:39.921Z,7.97
2018-07-22T12:35:08.704Z,8.30
2018-07-22T12:37:37.481Z,7.53
2018-07-22T12:40:06.329Z,8.27
2018-07-22T12:42:35.114Z,8.57
2018-07-22T12:45:03.971Z,8.33
2018-07-22T12:47:32.770Z,8.17
2018-07-22T12:50:01.553Z,7.83
2018-07-22T12:52:30.323Z,7.13
2018-07-22T12:54:59.208Z,8.63
2018-07-22T12:57:28.084Z,8.00
2018-07-22T12:59:56.852Z,9.10
2018-07-22T13:02:25.848Z,10.13
2018-07-22T13:04:54.655Z,9.10
2018-07-22T13:07:23.402Z,8.73
2018-07-22T13:09:52.177Z,9.30
2018-07-22T13:12:20.981Z,8.30
2018-07-22T13:14:49.854Z,9.43
2018-07-22T13:17:18.691Z,10.57
2018-07-22T13:19:47.509Z,9.50
2018-07-22T13:22:16.234Z,9.13
2018-07-22T13:24:45.059Z,10.53
2018-07-22T13:27:13.857Z,12.43
2018-07-22T13:29:42.643Z,10.47
2018-07-22T13:32:11.478Z,8.63
2018-07-22T13:34:40.357Z,13.57
2018-07-22T13:37:09.154Z,9.67
2018-07-22T13:39:37.981Z,10.70
2018-07-22T13:42:06.761Z,9.63
2018-07-22T13:44:35.618Z,8.23
2018-07-22T13:47:04.463Z,11.57
2018-07-22T13:49:33.234Z,8.67
2018-07-22T13:52:02.442Z,9.03
2018-07-22T13:54:31.265Z,7.90
2018-07-22T13:57:00.411Z,8.10
2018-07-22T13:59:29.222Z,7.97
2018-07-22T14:01:58.027Z,8.23
2018-07-22T14:04:27.005Z,8.10
2018-07-22T14:06:56.015Z,8.27
2018-07-22T14:09:25.205Z,7.87
2018-07-22T14:11:54.146Z,8.30
2018-07-22T14:14:23.109Z,8.43
2018-07-22T14:16:51.879Z,8.70
2018-07-22T14:19:21.546Z,8.63
2018-07-22T14:21:51.723Z,9.10
2018-07-22T14:24:20.777Z,9.00
2018-07-22T14:26:49.554Z,10.17
2018-07-22T14:29:18.366Z,9.50
2018-07-22T14:31:48.342Z,10.30
2018-07-22T14:34:17.340Z,11.93
2018-07-22T14:36:46.088Z,10.23
2018-07-22T14:39:14.955Z,10.57
2018-07-22T14:41:43.809Z,10.17
2018-07-22T14:44:12.606Z,10.37
2018-07-22T14:46:41.701Z,9.30
2018-07-22T14:49:11.101Z,12.73
2018-07-22T14:51:40.909Z,10.57
2018-07-22T14:54:09.757Z,9.57
2018-07-22T14:56:38.550Z,9.67
2018-07-22T14:59:07.730Z,9.07
2018-07-22T15:01:36.540Z,9.40
2018-07-22T15:04:05.729Z,9.63
2018-07-22T15:06:34.483Z,9.20
2018-07-22T15:09:03.858Z,8.87
2018-07-22T15:11:32.657Z,8.93
2018-07-22T15:14:01.476Z,9.03
2018-07-22T15:16:30.736Z,9.60
2018-07-22T15:18:59.567Z,10.27
2018-07-22T15:21:28.483Z,10.00
2018-07-22T15:23:57.284Z,9.83
2018-07-22T15:26:26.103Z,11.30
2018-07-22T15:28:54.945Z,10.80
2018-07-22T15:31:23.794Z,9.87
2018-07-22T15:33:52.639Z,11.07
2018-07-22T15:36:21.528Z,10.30
2018-07-22T15:38:50.341Z,10.67
2018-07-22T15:41:19.198Z,9.30
2018-07-22T15:43:47.970Z,9.20
2018-07-22T15:46:16.770Z,8.40
2018-07-22T15:48:45.541Z,8.10
2018-07-22T15:51:14.300Z,9.60
2018-07-22T15:53:43.487Z,9.17
2018-07-22T15:56:12.878Z,9.20
2018-07-22T15:58:41.966Z,8.47
2018-07-22T16:01:11.319Z,8.33
2018-07-22T16:03:40.152Z,9.03
2018-07-22T16:06:09.028Z,8.60
2018-07-22T16:08:37.909Z,8.43
2018-07-22T16:11:06.719Z,8.93
2018-07-22T16:13:35.535Z,8.87
2018-07-22T16:16:04.396Z,9.07
2018-07-22T16:18:33.265Z,7.87
2018-07-22T16:21:02.655Z,6.77
2018-07-22T16:23:31.630Z,8.63
2018-07-22T16:26:00.970Z,7.33
2018-07-22T16:28:30.503Z,8.43
2018-07-22T16:30:59.275Z,7.57
2018-07-22T16:33:29.349Z,6.33
2018-07-22T16:35:58.194Z,6.30
2018-07-22T16:38:26.984Z,7.17
2018-07-22T16:40:56.235Z,8.50
2018-07-22T16:43:25.218Z,8.53
2018-07-22T16:45:54.114Z,9.17
2018-07-22T16:48:22.961Z,9.37
2018-07-22T16:50:51.722Z,8.63
2018-07-22T16:53:20.555Z,9.87
2018-07-22T16:55:49.497Z,9.77
2018-07-22T16:58:18.364Z,9.13
2018-07-22T17:00:47.422Z,9.57
2018-07-22T17:03:16.206Z,8.90
2018-07-22T17:05:45.048Z,9.20
2018-07-22T17:08:14.614Z,8.10
2018-07-22T17:10:43.434Z,8.53
2018-07-22T17:13:12.274Z,9.40
2018-07-22T17:15:41.073Z,8.03
2018-07-22T17:18:18.406Z,7.80
2018-07-22T17:20:47.834Z,7.20
2018-07-22T17:23:16.657Z,8.57
2018-07-22T17:25:45.481Z,9.63
2018-07-22T17:28:15.206Z,7.80
2018-07-22T17:30:44.049Z,7.60
2018-07-22T17:33:13.150Z,6.80
2018-07-22T17:35:41.953Z,8.27
2018-07-22T17:38:10.758Z,9.40
2018-07-22T17:40:39.512Z,9.57
2018-07-22T17:43:08.354Z,9.10
2018-07-22T17:45:38.394Z,8.40
2018-07-22T17:48:07.202Z,9.10
2018-07-22T17:50:35.998Z,9.03
2018-07-22T17:53:04.803Z,9.73
2018-07-22T17:55:33.618Z,9.83
2018-07-22T17:58:02.448Z,8.47
2018-07-22T18:00:31.257Z,8.10
2018-07-22T18:03:37.234Z,8.37
2018-07-22T18:06:06.057Z,7.87
2018-07-22T18:08:34.839Z,8.60
2018-07-22T18:11:03.621Z,8.10
2018-07-22T18:13:32.786Z,7.60
2018-07-22T18:16:01.574Z,7.47
2018-07-22T18:18:30.450Z,7.97
2018-07-22T18:20:59.443Z,8.27
2018-07-22T18:23:28.218Z,7.37
2018-07-22T18:25:56.991Z,8.30
2018-07-22T18:28:25.796Z,8.73
2018-07-22T18:30:54.666Z,9.03
2018-07-22T18:33:23.485Z,11.00
2018-07-22T18:35:52.283Z,10.90
2018-07-22T18:38:21.145Z,10.87
2018-07-22T18:40:49.972Z,10.77
2018-07-22T18:43:18.748Z,12.47
2018-07-22T18:45:47.587Z,9.73
2018-07-22T18:48:16.532Z,11.67
2018-07-22T18:50:45.548Z,11.63
2018-07-22T18:53:14.380Z,11.90
2018-07-22T18:55:43.242Z,14.20
2018-07-22T18:58:12.341Z,12.27
2018-07-22T19:00:41.263Z,12.73
2018-07-22T19:03:10.118Z,9.73
2018-07-22T19:05:38.991Z,9.37
2018-07-22T19:08:07.835Z,8.87
2018-07-22T19:10:36.673Z,9.30
2018-07-22T19:13:05.516Z,9.10
2018-07-22T19:15:34.907Z,9.07
2018-07-22T19:18:03.747Z,9.33
2018-07-22T19:20:32.522Z,9.83
2018-07-22T19:23:02.263Z,8.47
2018-07-22T19:25:31.443Z,9.93
2018-07-22T19:28:00.252Z,10.10
2018-07-22T19:30:29.134Z,9.60
2018-07-22T19:32:59.834Z,10.27
2018-07-22T19:35:28.595Z,11.60
2018-07-22T19:37:57.414Z,12.60
2018-07-22T19:40:26.214Z,11.47
2018-07-22T19:42:55.217Z,12.47
2018-07-22T19:45:23.969Z,12.70
2018-07-22T19:47:52.750Z,15.53
2018-07-22T19:50:21.547Z,12.50
2018-07-22T19:52:50.324Z,14.60
2018-07-22T19:55:19.109Z,11.80
2018-07-22T19:57:47.999Z,13.77
2018-07-22T20:00:16.853Z,11.27
2018-07-22T20:02:45.757Z,10.57
2018-07-22T20:05:15.237Z,9.80
2018-07-22T20:07:46.847Z,10.67
2018-07-22T20:10:15.631Z,10.40
2018-07-22T20:12:44.457Z,10.73
2018-07-22T20:15:13.429Z,11.80
2018-07-22T20:17:42.611Z,10.67
2018-07-22T20:20:12.686Z,9.00
2018-07-22T20:22:41.778Z,10.17
2018-07-22T20:25:10.687Z,11.50
2018-07-22T20:27:40.086Z,11.07
2018-07-22T20:30:09.295Z,9.87
2018-07-22T20:32:38.084Z,10.37
2018-07-22T20:35:07.581Z,9.90
2018-07-22T20:37:36.386Z,10.13
2018-07-22T20:40:05.570Z,11.00
2018-07-22T20:42:34.390Z,10.23
2018-07-22T20:45:03.698Z,9.80
2018-07-22T20:47:33.049Z,9.87
2018-07-22T20:50:01.838Z,9.80
2018-07-22T20:52:30.597Z,9.70
2018-07-22T20:54:59.459Z,10.10
2018-07-22T20:57:28.296Z,9.87
2018-07-22T20:59:57.065Z,9.27
2018-07-22T21:02:25.805Z,10.13
2018-07-22T21:04:54.662Z,9.40
2018-07-22T21:07:23.450Z,9.93
2018-07-22T21:09:52.267Z,8.97
2018-07-22T21:12:41.765Z,9.30
2018-07-22T21:15:11.039Z,11.70
2018-07-22T21:17:39.881Z,11.07
2018-07-22T21:20:08.934Z,10.33
2018-07-22T21:22:38.429Z,10.73
2018-07-22T21:25:07.258Z,10.83
2018-07-22T21:27:36.166Z,10.87
2018-07-22T21:30:06.939Z,10.40
2018-07-22T21:32:35.857Z,10.70
2018-07-22T21:35:05.160Z,10.30
2018-07-22T21:37:33.962Z,10.13
2018-07-22T21:40:03.126Z,9.23
2018-07-22T21:42:32.309Z,9.03
2018-07-22T21:45:01.113Z,9.13
2018-07-22T21:47:29.906Z,9.20
2018-07-22T21:49:59.013Z,9.47
2018-07-22T21:52:27.820Z,10.73
2018-07-22T21:54:56.662Z,10.10
2018-07-22T21:57:25.541Z,10.47
2018-07-22T21:59:54.605Z,9.80
2018-07-22T22:02:27.486Z,10.83
2018-07-22T22:04:56.424Z,10.43
2018-07-22T22:07:25.294Z,11.03
2018-07-22T22:09:54.379Z,10.50
2018-07-22T22:12:23.336Z,10.40
2018-07-22T22:14:52.131Z,10.27
2018-07-22T22:17:20.927Z,10.27
2018-07-22T22:19:49.747Z,9.90
2018-07-22T22:22:18.653Z,9.40
2018-07-22T22:24:47.477Z,10.00
2018-07-22T22:27:16.414Z,9.53
2018-07-22T22:29:45.203Z,8.77
2018-07-22T22:32:14.149Z,8.10
2018-07-22T22:34:42.937Z,8.03
2018-07-22T22:37:11.670Z,8.87
2018-07-22T22:39:40.402Z,8.83
2018-07-22T22:42:09.227Z,9.00
2018-07-22T22:44:37.989Z,8.50
2018-07-22T22:47:06.765Z,9.10
2018-07-22T22:49:35.537Z,8.07
2018-07-22T22:52:04.328Z,8.17
2018-07-22T22:54:33.202Z,8.63
2018-07-22T22:57:01.957Z,7.83
2018-07-22T22:59:30.724Z,8.13
2018-07-22T23:01:59.538Z,7.73
2018-07-22T23:04:28.287Z,8.60
2018-07-22T23:06:57.093Z,8.53
2018-07-22T23:09:25.879Z,8.23
2018-07-22T23:11:54.623Z,8.50
2018-07-22T23:14:23.457Z,8.87
2018-07-22T23:16:52.251Z,8.33
2018-07-22T23:19:21.073Z,7.90
2018-07-22T23:21:49.848Z,8.00
2018-07-22T23:24:18.618Z,8.27
2018-07-22T23:26:47.443Z,8.93
2018-07-22T23:29:16.217Z,8.57
2018-07-22T23:31:45.001Z,8.57
2018-07-22T23:34:13.757Z,8.73
2018-07-22T23:36:42.537Z,8.87
2018-07-22T23:39:11.318Z,8.40
2018-07-22T23:41:40.052Z,8.93
2018-07-22T23:44:08.997Z,8.13
2018-07-22T23:46:37.771Z,8.20
2018-07-22T23:49:06.696Z,8.00
2018-07-22T23:51:35.433Z,8.07
2018-07-22T23:54:04.203Z,8.00
2018-07-22T23:56:32.929Z,7.77
2018-07-22T23:59:01.733Z,8.40
